createdAt,value
2019-04-07T00:00:06.173Z,30.03
2019-04-07T00:02:34.615Z,33.73
2019-04-07T00:05:10.973Z,30.47
2019-04-07T00:07:33.466Z,29.67
2019-04-07T00:10:01.894Z,35.87
2019-04-07T00:12:30.998Z,39.17
2019-04-07T00:14:59.518Z,43.10
2019-04-07T00:17:28.572Z,34.57
2019-04-07T00:19:58.010Z,31.03
2019-04-07T00:22:26.438Z,31.13
2019-04-07T00:24:54.857Z,30.70
2019-04-07T00:27:23.034Z,26.93
2019-04-07T00:29:51.144Z,31.33
2019-04-07T00:32:19.237Z,32.03
2019-04-07T00:34:47.333Z,39.50
2019-04-07T00:37:15.695Z,31.13
2019-04-07T00:39:44.233Z,28.67
2019-04-07T00:42:12.692Z,43.63
2019-04-07T00:44:40.849Z,39.80
2019-04-07T00:47:09.424Z,36.20
2019-04-07T00:49:37.977Z,36.30
2019-04-07T00:52:08.356Z,37.43
2019-04-07T00:54:37.037Z,39.73
2019-04-07T00:57:05.560Z,37.67
2019-04-07T00:59:33.926Z,35.07
2019-04-07T01:02:02.563Z,39.17
2019-04-07T01:04:30.807Z,40.30
2019-04-07T01:06:59.243Z,37.50
2019-04-07T01:09:27.724Z,37.93
2019-04-07T01:11:55.857Z,37.97
2019-04-07T01:14:24.768Z,35.90
2019-04-07T01:16:53.007Z,31.73
2019-04-07T01:19:21.145Z,33.93
2019-04-07T01:21:49.922Z,32.23
2019-04-07T01:24:18.742Z,33.80
2019-04-07T01:26:47.213Z,33.30
2019-04-07T01:29:15.725Z,33.43
2019-04-07T01:31:44.405Z,32.60
2019-04-07T01:34:13.361Z,37.90
2019-04-07T01:36:42.883Z,34.33
2019-04-07T01:39:12.049Z,39.57
2019-04-07T01:41:41.804Z,43.50
2019-04-07T01:44:18.083Z,45.67
2019-04-07T01:47:04.732Z,46.83
2019-04-07T01:49:40.164Z,37.27
2019-04-07T01:52:13.021Z,37.43
2019-04-07T01:54:43.492Z,37.20
2019-04-07T01:57:26.217Z,36.37
2019-04-07T02:00:02.980Z,37.07
2019-04-07T02:02:35.597Z,35.97
2019-04-07T02:05:14.382Z,44.00
2019-04-07T02:07:44.585Z,33.53
2019-04-07T02:10:29.629Z,29.07
2019-04-07T02:12:59.371Z,34.50
2019-04-07T02:15:29.343Z,35.13
2019-04-07T02:17:59.343Z,38.97
2019-04-07T02:20:42.537Z,38.33
2019-04-07T02:23:12.796Z,38.10
2019-04-07T02:25:42.952Z,40.70
2019-04-07T02:28:25.437Z,42.77
2019-04-07T02:31:11.098Z,40.20
2019-04-07T02:33:44.300Z,42.23
2019-04-07T02:36:22.700Z,43.27
2019-04-07T02:38:49.860Z,43.57
2019-04-07T02:41:22.491Z,42.07
2019-04-07T02:44:04.901Z,42.13
2019-04-07T02:46:44.105Z,35.83
2019-04-07T02:49:19.995Z,36.17
2019-04-07T02:51:58.713Z,38.77
2019-04-07T02:54:44.775Z,36.73
2019-04-07T03:00:18.372Z,31.37
2019-04-07T03:05:43.545Z,34.80
2019-04-07T03:08:17.296Z,36.43
2019-04-07T03:10:53.560Z,38.73
2019-04-07T03:13:26.549Z,37.60
2019-04-07T03:16:00.502Z,38.37
2019-04-07T03:18:40.103Z,39.87
2019-04-07T03:21:10.195Z,34.17
2019-04-07T03:23:40.328Z,33.57
2019-04-07T03:26:26.688Z,31.50
2019-04-07T03:29:13.989Z,30.23
2019-04-07T03:34:42.107Z,28.70
2019-04-07T03:37:36.413Z,29.93
2019-04-07T03:40:18.577Z,37.10
2019-04-07T03:42:55.182Z,36.57
2019-04-07T03:45:41.793Z,34.50
2019-04-07T03:48:15.637Z,36.23
2019-04-07T03:50:51.180Z,33.50
2019-04-07T03:53:21.173Z,31.83
2019-04-07T03:55:53.570Z,33.13
2019-04-07T03:58:29.889Z,35.20
2019-04-07T04:01:05.242Z,33.27
2019-04-07T04:03:52.065Z,31.30
2019-04-07T04:06:30.451Z,36.07
2019-04-07T04:09:17.417Z,34.37
2019-04-07T04:11:56.876Z,37.97
2019-04-07T04:14:29.797Z,37.30
2019-04-07T04:16:58.006Z,40.63
2019-04-07T04:19:27.526Z,36.53
2019-04-07T04:21:56.910Z,39.80
2019-04-07T04:24:25.022Z,36.77
2019-04-07T04:26:53.784Z,34.13
2019-04-07T04:29:23.157Z,33.37
2019-04-07T04:31:52.836Z,38.93
2019-04-07T04:34:21.588Z,35.17
2019-04-07T04:36:50.260Z,34.17
2019-04-07T04:39:20.289Z,40.17
2019-04-07T04:41:49.192Z,39.13
2019-04-07T04:44:36.772Z,46.57
2019-04-07T04:47:04.942Z,44.27
2019-04-07T04:49:33.228Z,46.30
2019-04-07T04:52:01.455Z,46.60
2019-04-07T04:54:29.538Z,47.33
2019-04-07T04:56:57.629Z,42.03
2019-04-07T04:59:25.820Z,42.43
2019-04-07T05:01:53.914Z,46.93
2019-04-07T05:04:22.891Z,50.73
2019-04-07T05:06:51.536Z,45.87
2019-04-07T05:09:20.030Z,47.23
2019-04-07T05:11:48.613Z,46.63
2019-04-07T05:14:16.833Z,44.60
2019-04-07T05:16:44.948Z,45.93
2019-04-07T05:19:13.026Z,44.00
2019-04-07T05:21:41.543Z,51.10
2019-04-07T05:24:10.235Z,47.57
2019-04-07T05:26:38.860Z,43.43
2019-04-07T05:29:07.064Z,40.87
2019-04-07T05:31:35.924Z,39.87
2019-04-07T05:34:04.461Z,37.57
2019-04-07T05:36:32.567Z,37.90
2019-04-07T05:39:00.979Z,38.87
2019-04-07T05:41:29.641Z,39.00
2019-04-07T05:43:58.053Z,37.47
2019-04-07T05:46:28.106Z,41.73
2019-04-07T05:48:56.797Z,39.97
2019-04-07T05:51:25.227Z,37.23
2019-04-07T05:53:53.906Z,37.10
2019-04-07T05:56:25.982Z,34.80
2019-04-07T05:58:52.764Z,34.80
2019-04-07T06:01:23.359Z,33.90
2019-04-07T06:03:52.074Z,32.80
2019-04-07T06:06:20.884Z,35.50
2019-04-07T06:08:50.638Z,33.23
2019-04-07T06:11:19.418Z,32.80
2019-04-07T06:13:48.686Z,33.13
2019-04-07T06:16:19.946Z,31.53
2019-04-07T06:18:47.748Z,38.00
2019-04-07T06:21:17.264Z,36.93
2019-04-07T06:23:45.924Z,37.00
2019-04-07T06:26:15.067Z,35.93
2019-04-07T06:28:44.451Z,36.87
2019-04-07T06:31:14.050Z,37.53
2019-04-07T06:33:43.000Z,37.57
2019-04-07T06:36:11.614Z,36.27
2019-04-07T06:38:43.266Z,36.70
2019-04-07T06:41:10.577Z,33.83
2019-04-07T06:43:40.162Z,35.53
2019-04-07T06:46:10.632Z,35.40
2019-04-07T06:48:41.502Z,33.03
2019-04-07T06:51:15.135Z,39.23
2019-04-07T06:53:51.446Z,34.17
2019-04-07T06:56:24.518Z,34.47
2019-04-07T06:58:58.135Z,32.80
2019-04-07T07:01:44.922Z,35.30
2019-04-07T07:04:15.644Z,30.60
2019-04-07T07:07:01.056Z,40.87
2019-04-07T07:09:34.964Z,37.87
2019-04-07T07:12:20.630Z,39.00
2019-04-07T07:14:51.988Z,38.43
2019-04-07T07:17:31.170Z,39.27
2019-04-07T07:20:10.251Z,37.83
2019-04-07T07:22:41.766Z,37.40
2019-04-07T07:25:12.143Z,34.20
2019-04-07T07:27:41.741Z,35.93
2019-04-07T07:30:11.033Z,32.20
2019-04-07T07:32:39.921Z,32.30
2019-04-07T07:35:12.586Z,30.47
2019-04-07T07:37:38.785Z,32.93
2019-04-07T07:40:09.793Z,32.27
2019-04-07T07:42:38.225Z,31.33
2019-04-07T07:45:11.834Z,30.43
2019-04-07T07:47:38.604Z,30.77
2019-04-07T07:50:07.883Z,31.53
2019-04-07T07:52:37.686Z,33.77
2019-04-07T07:55:06.560Z,30.20
2019-04-07T07:57:35.558Z,32.23
2019-04-07T08:00:07.200Z,33.77
2019-04-07T08:02:36.462Z,33.93
2019-04-07T08:05:07.167Z,38.10
2019-04-07T08:07:35.931Z,35.63
2019-04-07T08:10:07.454Z,32.80
2019-04-07T08:12:35.930Z,34.40
2019-04-07T08:15:07.082Z,34.03
2019-04-07T08:17:36.573Z,34.07
2019-04-07T08:20:06.672Z,34.47
2019-04-07T08:22:41.350Z,34.30
2019-04-07T08:25:05.325Z,35.80
2019-04-07T08:27:33.488Z,30.77
2019-04-07T08:30:02.627Z,35.80
2019-04-07T08:32:32.393Z,34.00
2019-04-07T08:35:03.791Z,37.77
2019-04-07T08:37:31.199Z,36.70
2019-04-07T08:39:59.476Z,40.93
2019-04-07T08:42:27.939Z,37.13
2019-04-07T08:44:58.610Z,38.23
2019-04-07T08:47:26.228Z,38.97
2019-04-07T08:49:56.903Z,38.60
2019-04-07T08:52:24.798Z,38.37
2019-04-07T08:54:53.590Z,37.73
2019-04-07T08:57:22.530Z,35.53
2019-04-07T09:00:16.194Z,35.03
2019-04-07T09:02:42.719Z,35.73
2019-04-07T09:05:11.708Z,32.30
2019-04-07T09:07:40.063Z,29.53
2019-04-07T09:10:10.486Z,30.83
2019-04-07T09:12:39.253Z,30.60
2019-04-07T09:15:11.838Z,27.13
2019-04-07T09:17:46.631Z,30.70
2019-04-07T09:20:15.456Z,29.50
2019-04-07T09:22:45.185Z,28.17
2019-04-07T09:25:19.278Z,26.37
2019-04-07T09:27:50.337Z,26.17
2019-04-07T09:30:24.029Z,29.70
2019-04-07T09:32:56.807Z,29.87
2019-04-07T09:35:36.238Z,27.40
2019-04-07T09:38:24.848Z,28.80
2019-04-07T09:40:57.238Z,29.77
2019-04-07T09:43:43.914Z,26.47
2019-04-07T09:46:26.460Z,25.00
2019-04-07T09:49:03.354Z,26.07
2019-04-07T09:51:42.886Z,23.13
2019-04-07T09:54:13.327Z,20.27
2019-04-07T09:56:52.254Z,24.00
2019-04-07T09:59:25.083Z,24.07
2019-04-07T10:01:59.487Z,25.23
2019-04-07T10:04:45.872Z,23.53
2019-04-07T10:07:25.142Z,24.07
2019-04-07T10:10:14.510Z,23.20
2019-04-07T10:13:00.669Z,25.87
2019-04-07T10:15:31.626Z,23.50
2019-04-07T10:18:02.094Z,24.17
2019-04-07T10:20:35.192Z,24.13
2019-04-07T10:23:08.333Z,27.80
2019-04-07T10:25:50.783Z,26.53
2019-04-07T10:28:24.402Z,26.07
2019-04-07T10:31:11.336Z,22.93
2019-04-07T10:33:58.309Z,26.03
2019-04-07T10:36:31.893Z,24.43
2019-04-07T10:39:14.258Z,24.10
2019-04-07T10:41:50.752Z,24.00
2019-04-07T10:44:37.807Z,21.13
2019-04-07T10:47:10.733Z,22.03
2019-04-07T10:49:59.290Z,24.67
2019-04-07T10:52:28.201Z,22.40
2019-04-07T10:54:58.378Z,21.03
2019-04-07T10:57:37.856Z,24.23
2019-04-07T11:00:26.490Z,25.03
2019-04-07T11:03:02.927Z,21.90
2019-04-07T11:05:33.205Z,19.97
2019-04-07T11:08:11.792Z,22.73
2019-04-07T11:10:45.201Z,17.40
2019-04-07T11:13:18.582Z,20.00
2019-04-07T11:15:55.184Z,18.50
2019-04-07T11:18:34.777Z,18.50
2019-04-07T11:21:07.744Z,18.50
2019-04-07T11:23:53.274Z,17.33
2019-04-07T11:26:23.646Z,22.03
2019-04-07T11:28:53.787Z,19.13
2019-04-07T11:31:27.674Z,19.77
2019-04-07T11:33:58.755Z,18.93
2019-04-07T11:36:38.416Z,14.97
2019-04-07T11:39:11.958Z,14.53
2019-04-07T11:41:42.375Z,16.53
2019-04-07T11:44:12.813Z,16.07
2019-04-07T11:46:46.424Z,18.10
2019-04-07T11:49:16.572Z,18.13
2019-04-07T11:51:49.706Z,18.23
2019-04-07T11:54:19.844Z,14.67
2019-04-07T11:56:55.689Z,16.17
2019-04-07T11:59:31.717Z,14.07
2019-04-07T12:02:06.849Z,14.83
2019-04-07T12:04:53.431Z,13.70
2019-04-07T12:07:40.263Z,13.33
2019-04-07T12:10:27.251Z,12.80
2019-04-07T12:12:57.637Z,15.50
2019-04-07T12:15:30.893Z,11.83
2019-04-07T12:18:14.934Z,12.47
2019-04-07T12:21:01.129Z,13.40
2019-04-07T12:23:35.733Z,9.97
2019-04-07T12:26:20.730Z,10.87
2019-04-07T12:29:06.915Z,10.90
2019-04-07T12:31:40.408Z,9.73
2019-04-07T12:34:26.515Z,9.67
2019-04-07T12:37:06.065Z,13.10
2019-04-07T12:39:35.058Z,11.13
2019-04-07T12:42:08.797Z,10.23
2019-04-07T12:44:41.825Z,13.03
2019-04-07T12:47:12.400Z,10.33
2019-04-07T12:49:51.961Z,11.97
2019-04-07T12:52:26.175Z,10.33
2019-04-07T12:55:06.968Z,11.33
2019-04-07T12:57:46.004Z,10.43
2019-04-07T13:00:25.815Z,10.07
2019-04-07T13:03:01.751Z,8.50
2019-04-07T13:05:34.680Z,10.93
2019-04-07T13:08:10.812Z,10.77
2019-04-07T13:10:41.713Z,8.20
2019-04-07T13:13:12.332Z,10.00
2019-04-07T13:15:54.193Z,11.00
2019-04-07T13:18:27.754Z,11.17
2019-04-07T13:21:02.225Z,11.00
2019-04-07T13:23:38.559Z,10.60
2019-04-07T13:26:14.247Z,9.30
2019-04-07T13:28:44.551Z,13.80
2019-04-07T13:31:31.869Z,9.97
2019-04-07T13:34:18.055Z,9.70
2019-04-07T13:36:56.262Z,12.63
2019-04-07T13:39:26.324Z,9.20
2019-04-07T13:41:56.923Z,10.97
2019-04-07T13:44:28.305Z,11.20
2019-04-07T13:47:01.870Z,11.20
2019-04-07T13:49:47.216Z,10.63
2019-04-07T13:52:34.419Z,10.40
2019-04-07T13:55:07.486Z,10.80
2019-04-07T13:57:54.919Z,11.00
2019-04-07T14:00:23.234Z,11.07
2019-04-07T14:03:10.198Z,11.37
2019-04-07T14:05:56.743Z,11.53
2019-04-07T14:08:41.652Z,11.17
2019-04-07T14:11:28.486Z,12.60
2019-04-07T14:14:04.634Z,11.20
2019-04-07T14:16:50.794Z,12.50
2019-04-07T14:19:24.404Z,13.20
2019-04-07T14:22:25.652Z,11.20
2019-04-07T14:24:59.080Z,11.03
2019-04-07T14:27:29.773Z,12.17
2019-04-07T14:30:00.359Z,12.00
2019-04-07T14:32:49.414Z,15.10
2019-04-07T14:35:37.008Z,12.13
2019-04-07T14:38:09.960Z,11.17
2019-04-07T14:40:45.959Z,11.97
2019-04-07T14:43:17.630Z,11.03
2019-04-07T14:45:59.793Z,11.67
2019-04-07T14:48:35.878Z,11.47
2019-04-07T14:51:11.665Z,11.43
2019-04-07T14:53:57.244Z,12.80
2019-04-07T14:56:37.467Z,10.80
2019-04-07T14:59:08.124Z,11.80
2019-04-07T15:01:39.561Z,12.67
2019-04-07T15:04:08.510Z,10.43
2019-04-07T15:06:36.938Z,11.90
2019-04-07T15:09:13.595Z,11.93
2019-04-07T15:11:43.411Z,12.77
2019-04-07T15:14:12.428Z,15.83
2019-04-07T15:16:41.270Z,13.60
2019-04-07T15:19:09.614Z,13.93
2019-04-07T15:21:38.177Z,16.03
2019-04-07T15:24:08.450Z,16.03
2019-04-07T15:26:37.858Z,14.90
2019-04-07T15:29:09.237Z,15.50
2019-04-07T15:31:37.379Z,15.73
2019-04-07T15:34:08.554Z,14.30
2019-04-07T15:36:37.465Z,16.87
2019-04-07T15:39:08.557Z,18.70
2019-04-07T15:41:37.274Z,16.50
2019-04-07T15:44:09.032Z,14.83
2019-04-07T15:46:36.643Z,37.77
2019-04-07T15:49:06.706Z,14.07
2019-04-07T15:51:35.391Z,15.57
2019-04-07T15:54:04.692Z,13.87
2019-04-07T15:56:33.676Z,14.37
2019-04-07T15:59:02.400Z,18.17
2019-04-07T16:01:31.474Z,14.87
2019-04-07T16:04:00.033Z,21.37
2019-04-07T16:06:28.480Z,13.97
2019-04-07T16:08:58.842Z,23.87
2019-04-07T16:11:29.339Z,14.37
2019-04-07T16:16:28.457Z,9.63
2019-04-07T16:18:57.163Z,10.37
2019-04-07T16:21:27.720Z,9.83
2019-04-07T16:23:55.594Z,10.37
2019-04-07T16:26:24.051Z,10.80
2019-04-07T16:28:52.128Z,10.10
2019-04-07T16:31:24.248Z,11.87
2019-04-07T16:33:50.021Z,10.87
2019-04-07T16:36:19.611Z,12.03
2019-04-07T16:38:48.170Z,11.77
2019-04-07T16:41:35.937Z,12.80
2019-04-07T16:44:06.988Z,14.73
2019-04-07T16:46:34.165Z,12.37
2019-04-07T16:49:02.595Z,13.57
2019-04-07T16:51:32.775Z,13.53
2019-04-07T16:54:01.513Z,13.07
2019-04-07T16:56:29.910Z,14.03
2019-04-07T16:58:58.619Z,13.97
2019-04-07T17:01:27.572Z,17.67
2019-04-07T17:03:56.494Z,13.97
2019-04-07T17:06:26.790Z,15.50
2019-04-07T17:08:55.059Z,14.27
2019-04-07T17:11:23.659Z,14.10
2019-04-07T17:13:51.928Z,12.97
2019-04-07T17:16:22.920Z,13.37
2019-04-07T17:18:51.089Z,12.90
2019-04-07T17:21:20.677Z,15.53
2019-04-07T17:23:53.297Z,16.60
2019-04-07T17:26:21.676Z,15.10
2019-04-07T17:28:50.010Z,15.43
2019-04-07T17:31:18.807Z,16.93
2019-04-07T17:33:47.380Z,14.83
2019-04-07T17:36:18.675Z,16.03
2019-04-07T17:38:53.712Z,17.70
2019-04-07T17:41:21.794Z,16.53
2019-04-07T17:44:08.270Z,18.80
2019-04-07T17:46:44.199Z,24.33
2019-04-07T17:49:16.718Z,17.97
2019-04-07T17:51:49.953Z,19.87
2019-04-07T17:54:21.402Z,21.47
2019-04-07T17:56:51.401Z,16.67
2019-04-07T17:59:22.013Z,16.77
2019-04-07T18:01:56.546Z,16.17
2019-04-07T18:04:27.110Z,16.73
2019-04-07T18:07:13.506Z,16.40
2019-04-07T18:12:47.892Z,16.97
2019-04-07T18:15:36.258Z,16.97
2019-04-07T18:18:10.396Z,26.60
2019-04-07T18:20:41.377Z,22.80
2019-04-07T18:23:17.717Z,20.50
2019-04-07T18:25:48.193Z,45.27
2019-04-07T18:28:30.413Z,34.13
2019-04-07T18:31:17.828Z,16.77
2019-04-07T18:33:52.390Z,17.93
2019-04-07T18:36:38.491Z,16.93
2019-04-07T18:39:26.326Z,16.37
2019-04-07T18:42:01.096Z,16.03
2019-04-07T18:44:32.713Z,14.93
2019-04-07T18:47:20.921Z,15.80
2019-04-07T18:49:55.893Z,14.67
2019-04-07T18:52:38.911Z,16.63
2019-04-07T18:55:18.953Z,17.83
2019-04-07T18:57:52.064Z,16.90
2019-04-07T19:00:27.549Z,15.53
2019-04-07T19:03:00.292Z,17.33
2019-04-07T19:05:46.601Z,15.90
2019-04-07T19:08:17.901Z,18.23
2019-04-07T19:11:12.260Z,14.87
2019-04-07T19:14:07.401Z,15.20
2019-04-07T19:16:28.446Z,15.87
2019-04-07T19:18:58.630Z,15.60
2019-04-07T19:24:35.351Z,19.13
2019-04-07T19:27:13.518Z,14.73
2019-04-07T19:29:43.470Z,15.23
2019-04-07T19:32:17.976Z,16.60
2019-04-07T19:34:48.052Z,15.40
2019-04-07T19:37:22.872Z,15.53
2019-04-07T19:39:57.392Z,12.93
2019-04-07T19:42:48.208Z,11.20
2019-04-07T19:45:24.542Z,17.97
2019-04-07T19:48:11.486Z,12.87
2019-04-07T19:50:59.655Z,13.03
2019-04-07T19:53:36.647Z,10.13
2019-04-07T19:56:06.898Z,9.77
2019-04-07T19:58:38.634Z,13.07
2019-04-07T20:01:26.868Z,10.90
2019-04-07T20:04:10.987Z,9.83
2019-04-07T20:06:42.051Z,12.10
2019-04-07T20:09:12.714Z,12.63
2019-04-07T20:11:45.900Z,10.83
2019-04-07T20:14:28.460Z,11.73
2019-04-07T20:17:19.702Z,14.47
2019-04-07T20:20:08.794Z,12.27
2019-04-07T20:22:45.700Z,10.20
2019-04-07T20:25:24.564Z,8.60
2019-04-07T20:27:57.273Z,8.47
2019-04-07T20:30:46.907Z,8.50
2019-04-07T20:33:18.830Z,8.27
2019-04-07T20:36:05.077Z,8.93
2019-04-07T20:38:40.937Z,9.23
2019-04-07T20:41:13.615Z,8.33
2019-04-07T20:46:47.410Z,8.73
2019-04-07T20:49:34.632Z,7.13
2019-04-07T20:52:24.711Z,7.80
2019-04-07T20:54:58.137Z,7.87
2019-04-07T20:57:31.230Z,8.07
2019-04-07T21:00:18.566Z,6.90
2019-04-07T21:03:06.438Z,6.63
2019-04-07T21:05:35.649Z,6.20
2019-04-07T21:08:17.375Z,6.27
2019-04-07T21:10:59.463Z,7.13
2019-04-07T21:13:29.926Z,6.00
2019-04-07T21:16:03.577Z,6.00
2019-04-07T21:18:34.014Z,5.07
2019-04-07T21:21:04.573Z,5.00
2019-04-07T21:23:53.628Z,9.03
2019-04-07T21:26:27.768Z,7.10
2019-04-07T21:29:16.092Z,5.20
2019-04-07T21:32:03.549Z,4.80
2019-04-07T21:34:37.266Z,4.63
2019-04-07T21:37:10.664Z,4.27
2019-04-07T21:39:45.142Z,4.17
2019-04-07T21:45:02.367Z,4.60
2019-04-07T21:47:34.546Z,4.77
2019-04-07T21:50:07.571Z,4.37
2019-04-07T21:52:36.521Z,5.30
2019-04-07T21:55:24.064Z,3.93
2019-04-07T21:58:08.399Z,3.97
2019-04-07T22:00:55.107Z,3.27
2019-04-07T22:03:37.558Z,3.22
2019-04-07T22:06:07.689Z,3.03
2019-04-07T22:08:47.175Z,3.60
2019-04-07T22:11:15.635Z,2.63
2019-04-07T22:13:44.878Z,2.90
2019-04-07T22:16:14.232Z,3.40
2019-04-07T22:18:43.065Z,2.57
2019-04-07T22:21:11.779Z,2.30
2019-04-07T22:23:40.229Z,2.50
2019-04-07T22:26:12.610Z,2.37
2019-04-07T22:28:39.448Z,2.40
2019-04-07T22:31:10.936Z,2.97
2019-04-07T22:33:38.938Z,2.30
2019-04-07T22:36:11.249Z,2.20
2019-04-07T22:38:37.696Z,2.87
2019-04-07T22:41:08.074Z,3.57
2019-04-07T22:43:36.354Z,2.43
2019-04-07T22:46:14.751Z,2.90
2019-04-07T22:48:34.948Z,3.10
2019-04-07T22:51:04.125Z,3.27
2019-04-07T22:53:33.184Z,2.67
2019-04-07T22:56:04.750Z,3.20
2019-04-07T22:58:31.885Z,3.27
2019-04-07T23:01:00.710Z,3.07
2019-04-07T23:03:29.359Z,2.73
2019-04-07T23:05:57.949Z,3.20
2019-04-07T23:08:26.477Z,3.37
2019-04-07T23:10:55.751Z,3.00
2019-04-07T23:13:23.985Z,3.23
2019-04-07T23:15:53.274Z,2.60
2019-04-07T23:18:22.488Z,2.67
2019-04-07T23:20:51.531Z,3.17
2019-04-07T23:23:20.061Z,2.50
2019-04-07T23:25:48.207Z,2.67
2019-04-07T23:28:16.750Z,2.73
2019-04-07T23:30:45.214Z,3.07
2019-04-07T23:33:13.301Z,2.50
2019-04-07T23:35:41.717Z,3.73
2019-04-07T23:38:10.141Z,2.83
2019-04-07T23:40:38.561Z,2.97
2019-04-07T23:43:06.637Z,2.30
2019-04-07T23:45:35.737Z,2.60
2019-04-07T23:48:04.312Z,2.80
2019-04-07T23:50:33.537Z,1.90
2019-04-07T23:53:21.650Z,2.30
2019-04-07T23:55:50.061Z,2.50
2019-04-07T23:58:19.321Z,1.97
